Time;durP1;ratioP1;P1;durP2;ratioP2;P2;SDS_P1;SDS_P2;PMS_P1;PMS_P2;Temp;Humidity;BMP_temperature;BMP_pressure;BME280_temperature;BME280_humidity;BME280_pressure;Samples;Min_cycle;Max_cycle;Signal;HPM_P1;HPM_P2
2022/10/18 00:00:25;;;;;;;;;;;11.60;99.90;;;;;;5058927;28;19966;-69
2022/10/18 00:02:51;;;;;;;;;;;11.60;99.90;;;;;;5065991;28;20678;-69
2022/10/18 00:05:16;;;;;;;;;;;11.60;99.90;;;;;;5047034;28;20021;-68
2022/10/18 00:07:41;;;;;;;;;;;11.60;99.90;;;;;;5053356;28;20344;-68
2022/10/18 00:10:07;;;;;;;;;;;11.50;99.90;;;;;;5065696;28;20283;-68
2022/10/18 00:12:34;;;;;;;;;;;11.50;99.90;;;;;;5066287;28;19977;-68
2022/10/18 00:15:00;;;;;;;;;;;11.50;99.90;;;;;;5070147;28;19921;-68
2022/10/18 00:17:26;;;;;;;;;;;11.50;99.90;;;;;;5067592;28;19925;-68
2022/10/18 00:19:51;;;;;;;;;;;11.40;99.90;;;;;;5067487;28;19925;-68
2022/10/18 00:22:17;;;;;;;;;;;11.40;99.90;;;;;;5064110;28;19928;-68
2022/10/18 00:24:42;;;;;;;;;;;11.50;99.90;;;;;;5061735;28;19920;-68
2022/10/18 00:27:08;;;;;;;;;;;11.50;99.90;;;;;;5066609;28;19928;-68
2022/10/18 00:29:33;;;;;;;;;;;11.40;99.90;;;;;;5068084;28;19983;-68
2022/10/18 00:31:58;;;;;;;;;;;11.50;99.90;;;;;;5053125;28;19920;-68
2022/10/18 00:34:24;;;;;;;;;;;11.50;99.90;;;;;;5045770;28;19925;-69
2022/10/18 00:36:50;;;;;;;;;;;11.40;99.90;;;;;;5051061;28;19970;-69
2022/10/18 00:39:16;;;;;;;;;;;11.50;99.90;;;;;;5072050;28;19947;-69
2022/10/18 00:41:42;;;;;;;;;;;11.50;99.90;;;;;;5043365;28;19932;-69
2022/10/18 00:44:10;;;;;;;;;;;11.40;99.90;;;;;;5045190;28;19920;-69
2022/10/18 00:46:43;;;;;;;;;;;11.40;99.90;;;;;;5065657;28;20130;-69
2022/10/18 00:49:15;;;;;;;;;;;11.40;99.90;;;;;;5060523;28;19921;-69
2022/10/18 00:51:45;;;;;;;;;;;11.40;99.90;;;;;;5060847;28;20302;-69
2022/10/18 00:54:11;;;;;;;;;;;11.50;99.90;;;;;;5051552;28;19930;-69
2022/10/18 00:56:36;;;;;;;;;;;11.40;99.90;;;;;;5049510;28;19921;-69
2022/10/18 00:59:02;;;;;;;;;;;11.50;99.90;;;;;;5065549;28;19930;-69
2022/10/18 01:01:27;;;;;;;;;;;11.40;99.90;;;;;;5047386;28;20285;-69
2022/10/18 01:03:53;;;;;;;;;;;11.40;99.90;;;;;;5057908;28;20015;-69
2022/10/18 01:06:19;;;;;;;;;;;11.50;99.90;;;;;;5049527;28;19936;-69
2022/10/18 01:09:07;;;;;;;;;;;11.40;99.90;;;;;;5059359;28;19928;-69
2022/10/18 01:11:54;;;;;;;;;;;11.40;99.90;;;;;;5035913;28;19924;-69
2022/10/18 01:14:35;;;;;;;;;;;11.50;99.90;;;;;;5050866;28;19967;-69
2022/10/18 01:17:04;;;;;;;;;;;11.50;99.90;;;;;;5062687;28;19971;-69
2022/10/18 01:19:38;;;;;;;;;;;11.40;99.90;;;;;;5066033;28;19920;-69
2022/10/18 01:22:06;;;;;;;;;;;11.40;99.90;;;;;;5063713;28;19924;-69
2022/10/18 01:24:32;;;;;;;;;;;11.50;99.90;;;;;;5050549;28;19928;-69
2022/10/18 01:27:09;;;;;;;;;;;11.50;99.90;;;;;;5049494;28;19932;-69
2022/10/18 01:29:41;;;;;;;;;;;11.40;99.90;;;;;;5062185;28;19920;-69
2022/10/18 01:32:11;;;;;;;;;;;11.40;99.90;;;;;;5053598;28;19920;-69
2022/10/18 01:34:37;;;;;;;;;;;11.40;99.90;;;;;;5051323;28;19924;-69
2022/10/18 01:37:05;;;;;;;;;;;11.40;99.90;;;;;;5067393;28;19921;-69
2022/10/18 01:39:33;;;;;;;;;;;11.50;99.90;;;;;;5049560;28;19926;-69
2022/10/18 01:42:00;;;;;;;;;;;11.40;99.90;;;;;;5067719;28;20007;-69
2022/10/18 01:44:28;;;;;;;;;;;11.40;99.90;;;;;;5066508;28;20610;-69
2022/10/18 01:46:55;;;;;;;;;;;11.40;99.90;;;;;;5043679;28;19936;-69
2022/10/18 01:49:20;;;;;;;;;;;11.40;99.90;;;;;;5061943;28;19920;-69
2022/10/18 01:51:46;;;;;;;;;;;11.40;99.90;;;;;;5067746;28;19920;-69
2022/10/18 01:54:15;;;;;;;;;;;11.40;99.90;;;;;;5054694;28;20569;-69
2022/10/18 01:56:49;;;;;;;;;;;11.30;99.90;;;;;;5064131;28;19924;-69
2022/10/18 01:59:18;;;;;;;;;;;11.30;99.90;;;;;;5049927;28;19920;-69
2022/10/18 02:01:49;;;;;;;;;;;11.30;99.90;;;;;;5063751;28;19960;-69
2022/10/18 02:04:25;;;;;;;;;;;11.20;99.90;;;;;;5043861;28;19927;-69
2022/10/18 02:06:54;;;;;;;;;;;11.20;99.90;;;;;;5067395;28;20031;-69
2022/10/18 02:09:27;;;;;;;;;;;11.20;99.90;;;;;;5050655;28;20389;-69
2022/10/18 02:11:53;;;;;;;;;;;11.20;99.90;;;;;;5064413;28;19928;-69
2022/10/18 02:14:22;;;;;;;;;;;11.20;99.90;;;;;;5045117;28;19974;-69
2022/10/18 02:16:49;;;;;;;;;;;11.10;99.90;;;;;;5063904;28;19921;-69
2022/10/18 02:19:18;;;;;;;;;;;11.20;99.90;;;;;;5062459;28;19932;-69
2022/10/18 02:21:46;;;;;;;;;;;11.10;99.90;;;;;;5051647;28;19952;-69
2022/10/18 02:24:12;;;;;;;;;;;11.20;99.90;;;;;;5053100;28;20096;-69
2022/10/18 02:26:38;;;;;;;;;;;11.10;99.90;;;;;;5070634;28;20381;-69
2022/10/18 02:29:04;;;;;;;;;;;11.20;99.90;;;;;;5066227;28;19925;-69
2022/10/18 02:31:35;;;;;;;;;;;11.20;99.90;;;;;;5074460;28;19924;-69
2022/10/18 02:34:07;;;;;;;;;;;11.20;99.90;;;;;;5063225;28;20062;-69
2022/10/18 02:36:39;;;;;;;;;;;11.20;99.90;;;;;;5053024;28;19965;-69
2022/10/18 02:39:13;;;;;;;;;;;11.20;99.90;;;;;;5061839;28;19928;-69
2022/10/18 02:41:38;;;;;;;;;;;11.20;99.90;;;;;;5069239;28;20507;-69
2022/10/18 02:44:04;;;;;;;;;;;11.30;99.90;;;;;;5066526;28;19921;-69
2022/10/18 02:46:29;;;;;;;;;;;11.30;99.90;;;;;;5069956;28;19931;-69
2022/10/18 02:48:55;;;;;;;;;;;11.30;99.90;;;;;;5064844;28;19925;-69
2022/10/18 02:51:20;;;;;;;;;;;11.30;99.90;;;;;;5063619;28;19928;-69
2022/10/18 02:53:46;;;;;;;;;;;11.30;99.90;;;;;;5065886;28;19924;-69
2022/10/18 02:56:11;;;;;;;;;;;11.40;99.90;;;;;;5051333;28;19933;-69
2022/10/18 02:58:37;;;;;;;;;;;11.40;99.90;;;;;;5063459;28;20050;-69
2022/10/18 03:01:02;;;;;;;;;;;11.40;99.90;;;;;;5059545;28;19943;-69
2022/10/18 03:03:28;;;;;;;;;;;11.50;99.90;;;;;;5069314;28;19924;-69
2022/10/18 03:05:53;;;;;;;;;;;11.40;99.90;;;;;;5063910;28;20023;-69
2022/10/18 03:08:19;;;;;;;;;;;11.50;99.90;;;;;;5065478;28;19935;-69
2022/10/18 03:10:45;;;;;;;;;;;11.50;99.90;;;;;;5068109;28;19974;-69
2022/10/18 03:13:10;;;;;;;;;;;11.50;99.90;;;;;;5066465;28;19951;-69
2022/10/18 03:15:36;;;;;;;;;;;11.50;99.90;;;;;;5065511;28;19971;-69
2022/10/18 03:18:01;;;;;;;;;;;11.60;99.90;;;;;;5049236;28;20317;-69
2022/10/18 03:20:27;;;;;;;;;;;11.60;99.90;;;;;;5047151;28;19920;-69
2022/10/18 03:22:52;;;;;;;;;;;11.60;99.90;;;;;;5061460;28;19978;-69
2022/10/18 03:25:18;;;;;;;;;;;11.60;99.90;;;;;;5041389;28;19966;-69
2022/10/18 03:27:43;;;;;;;;;;;11.60;99.90;;;;;;5046760;28;19924;-69
2022/10/18 03:30:10;;;;;;;;;;;11.60;99.90;;;;;;5044908;28;20338;-69
2022/10/18 03:32:36;;;;;;;;;;;11.70;99.90;;;;;;5049103;28;19927;-69
2022/10/18 03:35:03;;;;;;;;;;;11.70;99.90;;;;;;5043800;28;19964;-69
2022/10/18 03:37:28;;;;;;;;;;;11.70;99.90;;;;;;5045568;28;19927;-69
2022/10/18 03:39:54;;;;;;;;;;;11.80;99.90;;;;;;5046382;28;19921;-69
2022/10/18 03:42:19;;;;;;;;;;;11.80;99.90;;;;;;5038959;28;20418;-69
2022/10/18 03:44:45;;;;;;;;;;;11.80;99.90;;;;;;5044839;28;19932;-69
2022/10/18 03:47:11;;;;;;;;;;;11.80;99.90;;;;;;5044793;28;19925;-69
2022/10/18 03:49:36;;;;;;;;;;;11.80;99.90;;;;;;5038866;28;19959;-69
2022/10/18 03:52:02;;;;;;;;;;;11.80;99.90;;;;;;5044615;28;20323;-69
2022/10/18 03:54:28;;;;;;;;;;;11.80;99.90;;;;;;5045914;28;19921;-69
2022/10/18 03:56:53;;;;;;;;;;;11.80;99.90;;;;;;5046843;28;20270;-69
2022/10/18 03:59:19;;;;;;;;;;;11.80;99.90;;;;;;5041902;28;19928;-69
2022/10/18 04:01:44;;;;;;;;;;;11.80;99.90;;;;;;5049163;28;20016;-69
2022/10/18 04:04:10;;;;;;;;;;;11.90;99.90;;;;;;5049082;28;19921;-69
2022/10/18 04:06:35;;;;;;;;;;;11.90;99.90;;;;;;5044411;28;19929;-69
2022/10/18 04:09:01;;;;;;;;;;;11.90;99.90;;;;;;5049262;28;20406;-69
2022/10/18 04:11:26;;;;;;;;;;;11.90;99.90;;;;;;5043334;28;19978;-69
2022/10/18 04:13:52;;;;;;;;;;;11.90;99.90;;;;;;5044753;28;20734;-69
2022/10/18 04:16:17;;;;;;;;;;;11.90;99.90;;;;;;5042866;28;19925;-69
2022/10/18 04:18:43;;;;;;;;;;;11.90;99.90;;;;;;5052612;28;19921;-69
2022/10/18 04:21:08;;;;;;;;;;;11.90;99.90;;;;;;5049650;28;19928;-69
2022/10/18 04:23:33;;;;;;;;;;;11.90;99.90;;;;;;5049372;28;19925;-69
2022/10/18 04:25:59;;;;;;;;;;;12.00;99.90;;;;;;5058867;28;19974;-69
2022/10/18 04:28:24;;;;;;;;;;;11.90;99.90;;;;;;5048241;28;19931;-69
2022/10/18 04:30:50;;;;;;;;;;;12.00;99.90;;;;;;5050373;28;20011;-69
2022/10/18 04:33:16;;;;;;;;;;;12.00;99.90;;;;;;5047150;28;19932;-69
2022/10/18 04:35:42;;;;;;;;;;;12.00;99.90;;;;;;5042196;28;20287;-69
2022/10/18 04:38:08;;;;;;;;;;;12.00;99.90;;;;;;5065625;28;19921;-69
2022/10/18 04:40:33;;;;;;;;;;;12.00;99.90;;;;;;5050246;28;19927;-69
2022/10/18 04:42:59;;;;;;;;;;;12.00;99.90;;;;;;5049073;28;20040;-69
2022/10/18 04:45:24;;;;;;;;;;;12.10;99.90;;;;;;5049298;28;20297;-69
2022/10/18 04:47:50;;;;;;;;;;;12.10;99.90;;;;;;5046586;28;19932;-69
2022/10/18 04:50:15;;;;;;;;;;;12.10;99.90;;;;;;5045567;28;19925;-69
2022/10/18 04:52:41;;;;;;;;;;;12.10;99.90;;;;;;5047163;28;19959;-69
2022/10/18 04:55:06;;;;;;;;;;;12.10;99.90;;;;;;5048976;28;19921;-69
2022/10/18 04:57:32;;;;;;;;;;;12.10;99.90;;;;;;5046156;28;19927;-69
2022/10/18 04:59:57;;;;;;;;;;;12.10;99.90;;;;;;5045458;28;19921;-69
2022/10/18 05:02:23;;;;;;;;;;;12.20;99.90;;;;;;5047984;28;20290;-69
2022/10/18 05:04:49;;;;;;;;;;;12.20;99.90;;;;;;5048921;28;19995;-69
2022/10/18 05:07:14;;;;;;;;;;;12.20;99.90;;;;;;5048382;28;19925;-69
2022/10/18 05:09:40;;;;;;;;;;;12.20;99.90;;;;;;5047906;28;19920;-69
2022/10/18 05:12:05;;;;;;;;;;;12.20;99.90;;;;;;5048601;28;20316;-69
2022/10/18 05:14:31;;;;;;;;;;;12.20;99.90;;;;;;5046062;28;19931;-69
2022/10/18 05:16:56;;;;;;;;;;;12.10;99.90;;;;;;5045947;28;19921;-69
2022/10/18 05:19:22;;;;;;;;;;;12.20;99.90;;;;;;5037953;28;20338;-69
2022/10/18 05:21:47;;;;;;;;;;;12.10;99.90;;;;;;5049219;28;19936;-69
2022/10/18 05:24:13;;;;;;;;;;;12.10;99.90;;;;;;5060203;28;20608;-69
2022/10/18 05:26:38;;;;;;;;;;;12.10;99.90;;;;;;5042090;28;19932;-69
2022/10/18 05:29:03;;;;;;;;;;;12.10;99.90;;;;;;5042820;28;19927;-69
2022/10/18 05:31:29;;;;;;;;;;;12.10;99.90;;;;;;5050812;28;19927;-69
2022/10/18 05:33:54;;;;;;;;;;;12.10;99.90;;;;;;5050118;28;20363;-69
2022/10/18 05:36:20;;;;;;;;;;;12.10;99.90;;;;;;5068973;23;19977;-67
2022/10/18 05:38:47;;;;;;;;;;;12.10;99.90;;;;;;5066112;28;20351;-67
2022/10/18 05:41:13;;;;;;;;;;;12.10;99.90;;;;;;5066107;28;20395;-67
2022/10/18 05:43:39;;;;;;;;;;;12.10;99.90;;;;;;5064680;28;19927;-68
2022/10/18 05:46:06;;;;;;;;;;;12.10;99.90;;;;;;5089293;28;19976;-67
2022/10/18 05:48:32;;;;;;;;;;;12.10;99.90;;;;;;5066519;28;19970;-67
2022/10/18 05:50:58;;;;;;;;;;;12.00;99.90;;;;;;5069674;28;19963;-68
2022/10/18 05:53:23;;;;;;;;;;;12.00;99.90;;;;;;5089979;28;19924;-68
2022/10/18 05:55:49;;;;;;;;;;;12.00;99.90;;;;;;5076103;28;19927;-67
2022/10/18 05:58:14;;;;;;;;;;;11.90;99.90;;;;;;5083787;28;20261;-68
2022/10/18 06:00:40;;;;;;;;;;;11.90;99.90;;;;;;5073183;28;19920;-67
2022/10/18 06:03:05;;;;;;;;;;;11.90;99.90;;;;;;5071749;28;19920;-67
2022/10/18 06:05:31;;;;;;;;;;;11.90;99.90;;;;;;5081221;28;19921;-67
2022/10/18 06:07:56;;;;;;;;;;;11.90;99.90;;;;;;5084828;28;19963;-68
2022/10/18 06:10:22;;;;;;;;;;;11.90;99.90;;;;;;5088271;28;20677;-67
2022/10/18 06:12:47;;;;;;;;;;;11.80;99.90;;;;;;5071188;28;19977;-67
2022/10/18 06:15:13;;;;;;;;;;;11.80;99.90;;;;;;5070427;28;19924;-67
2022/10/18 06:17:38;;;;;;;;;;;11.80;99.90;;;;;;5063162;28;19924;-68
2022/10/18 06:20:04;;;;;;;;;;;11.80;99.90;;;;;;5070516;28;19943;-68
2022/10/18 06:22:29;;;;;;;;;;;11.80;99.90;;;;;;5084388;28;19920;-67
2022/10/18 06:24:55;;;;;;;;;;;11.80;99.90;;;;;;5082416;28;19920;-67
2022/10/18 06:27:20;;;;;;;;;;;11.80;99.90;;;;;;5083972;28;20479;-69
2022/10/18 06:29:46;;;;;;;;;;;11.70;99.90;;;;;;5084531;28;20022;-69
2022/10/18 06:32:11;;;;;;;;;;;11.70;99.90;;;;;;5064790;28;19920;-68
2022/10/18 06:34:37;;;;;;;;;;;11.70;99.90;;;;;;5068099;28;19924;-69
2022/10/18 06:37:02;;;;;;;;;;;11.70;99.90;;;;;;5078640;28;19932;-69
2022/10/18 06:39:28;;;;;;;;;;;11.70;99.90;;;;;;5081743;28;19920;-67
2022/10/18 06:41:53;;;;;;;;;;;11.70;99.90;;;;;;5061398;28;19921;-67
2022/10/18 06:44:22;;;;;;;;;;;11.60;99.90;;;;;;5068384;28;19924;-66
2022/10/18 06:46:48;;;;;;;;;;;11.60;99.90;;;;;;5093590;28;19924;-67
2022/10/18 06:49:14;;;;;;;;;;;11.60;99.90;;;;;;5075771;28;19927;-66
2022/10/18 06:51:40;;;;;;;;;;;11.60;99.90;;;;;;5082632;28;20002;-66
2022/10/18 06:54:06;;;;;;;;;;;11.60;99.90;;;;;;5076730;28;20050;-67
2022/10/18 06:56:32;;;;;;;;;;;11.60;99.90;;;;;;5078953;28;19995;-67
2022/10/18 06:58:57;;;;;;;;;;;11.60;99.90;;;;;;5075145;28;19932;-66
2022/10/18 07:01:23;;;;;;;;;;;11.60;99.90;;;;;;5087151;28;19924;-66
2022/10/18 07:03:51;;;;;;;;;;;11.60;99.90;;;;;;5070153;28;20391;-66
2022/10/18 07:06:17;;;;;;;;;;;11.60;99.90;;;;;;5086968;28;20389;-66
2022/10/18 07:08:42;;;;;;;;;;;11.60;99.90;;;;;;5069359;28;20662;-66
2022/10/18 07:11:12;;;;;;;;;;;11.60;99.90;;;;;;5086514;28;20011;-66
2022/10/18 07:13:38;;;;;;;;;;;11.70;99.90;;;;;;5072482;28;19924;-66
2022/10/18 07:16:08;;;;;;;;;;;11.70;99.90;;;;;;5067350;28;20270;-66
2022/10/18 07:18:34;;;;;;;;;;;11.70;99.90;;;;;;5068979;28;20350;-66
2022/10/18 07:21:00;;;;;;;;;;;11.70;99.90;;;;;;5060376;28;19924;-66
2022/10/18 07:23:26;;;;;;;;;;;11.80;99.90;;;;;;5083617;28;19920;-66
2022/10/18 07:25:51;;;;;;;;;;;11.70;99.90;;;;;;5061445;28;19924;-66
2022/10/18 07:28:17;;;;;;;;;;;11.70;99.90;;;;;;5084827;28;20006;-65
2022/10/18 07:30:42;;;;;;;;;;;11.80;99.90;;;;;;5066617;28;20039;-66
2022/10/18 07:33:08;;;;;;;;;;;11.80;99.90;;;;;;5062663;28;20120;-66
2022/10/18 07:35:33;;;;;;;;;;;11.90;99.90;;;;;;5063834;28;20383;-65
2022/10/18 07:37:58;;;;;;;;;;;11.90;99.90;;;;;;5080234;28;19989;-66
2022/10/18 07:40:24;;;;;;;;;;;12.00;99.90;;;;;;5069936;28;19926;-67
2022/10/18 07:42:49;;;;;;;;;;;12.00;99.90;;;;;;5088301;28;19927;-67
2022/10/18 07:45:15;;;;;;;;;;;12.00;99.90;;;;;;5068213;28;20340;-66
2022/10/18 07:47:40;;;;;;;;;;;12.10;99.90;;;;;;5086587;28;19930;-65
2022/10/18 07:50:06;;;;;;;;;;;12.10;99.90;;;;;;5064935;28;20007;-65
2022/10/18 07:52:32;;;;;;;;;;;12.10;99.90;;;;;;5083259;28;19960;-65
2022/10/18 07:54:57;;;;;;;;;;;12.20;99.90;;;;;;5082719;28;20368;-66
2022/10/18 07:57:22;;;;;;;;;;;12.30;99.90;;;;;;5089181;28;19981;-65
2022/10/18 07:59:54;;;;;;;;;;;12.40;99.90;;;;;;5090033;28;19931;-65
2022/10/18 08:02:20;;;;;;;;;;;12.40;99.90;;;;;;5083882;28;20370;-65
2022/10/18 08:04:46;;;;;;;;;;;12.40;99.90;;;;;;5070901;28;19926;-66
2022/10/18 08:07:11;;;;;;;;;;;12.40;99.90;;;;;;5089242;28;19924;-65
2022/10/18 08:09:37;;;;;;;;;;;12.50;99.90;;;;;;5088942;28;19928;-67
2022/10/18 08:12:03;;;;;;;;;;;12.60;99.90;;;;;;5068492;28;19923;-66
2022/10/18 08:14:28;;;;;;;;;;;12.70;99.90;;;;;;5079880;28;20372;-65
2022/10/18 08:16:54;;;;;;;;;;;12.70;99.90;;;;;;5070523;28;19920;-66
2022/10/18 08:19:19;;;;;;;;;;;12.70;99.90;;;;;;5065607;28;20331;-66
2022/10/18 08:21:45;;;;;;;;;;;12.70;99.90;;;;;;5087310;28;19920;-65
2022/10/18 08:24:10;;;;;;;;;;;12.80;99.90;;;;;;5086354;28;19974;-65
2022/10/18 08:26:36;;;;;;;;;;;12.80;99.90;;;;;;5069310;28;19931;-66
2022/10/18 08:29:01;;;;;;;;;;;12.80;99.90;;;;;;5070259;28;19959;-65
2022/10/18 08:31:27;;;;;;;;;;;12.80;99.90;;;;;;5065253;28;19927;-66
2022/10/18 08:33:53;;;;;;;;;;;12.80;99.90;;;;;;5086366;28;20000;-66
2022/10/18 08:36:19;;;;;;;;;;;12.70;99.90;;;;;;5064884;28;19928;-66
2022/10/18 08:38:44;;;;;;;;;;;12.70;99.90;;;;;;5083784;28;20007;-65
2022/10/18 08:41:20;;;;;;;;;;;12.70;99.90;;;;;;5079439;28;19948;-65
2022/10/18 08:43:50;;;;;;;;;;;12.80;99.90;;;;;;5064976;28;19924;-65
2022/10/18 08:46:16;;;;;;;;;;;12.90;99.90;;;;;;5059429;28;19928;-66
2022/10/18 08:48:44;;;;;;;;;;;13.00;99.90;;;;;;5077689;28;20033;-66
2022/10/18 08:51:36;;;;;;;;;;;13.00;99.90;;;;;;5081598;28;19923;-66
2022/10/18 08:54:03;;;;;;;;;;;13.00;99.90;;;;;;5066135;28;19936;-64
2022/10/18 08:56:29;;;;;;;;;;;13.00;99.90;;;;;;5085115;28;20010;-66
2022/10/18 08:58:55;;;;;;;;;;;13.00;99.90;;;;;;5086448;28;19924;-65
2022/10/18 09:01:33;;;;;;;;;;;13.00;99.90;;;;;;5066596;28;19924;-66
2022/10/18 09:04:37;;;;;;;;;;;13.00;99.90;;;;;;5058091;28;19924;-65
2022/10/18 09:07:13;;;;;;;;;;;13.00;99.90;;;;;;4999034;28;20104;-66
2022/10/18 09:09:41;;;;;;;;;;;13.10;99.90;;;;;;4975834;28;19941;-66
2022/10/18 09:12:14;;;;;;;;;;;13.10;99.90;;;;;;5017237;28;19928;-66
2022/10/18 09:14:45;;;;;;;;;;;13.10;99.90;;;;;;5078294;28;19927;-66
2022/10/18 09:17:16;;;;;;;;;;;13.20;99.90;;;;;;5066109;28;20013;-66
2022/10/18 09:19:53;;;;;;;;;;;13.20;99.90;;;;;;5071226;28;20381;-66
2022/10/18 09:22:21;;;;;;;;;;;13.20;99.90;;;;;;5049491;28;19924;-66
2022/10/18 09:24:57;;;;;;;;;;;13.20;99.90;;;;;;5085018;28;19924;-66
2022/10/18 09:27:28;;;;;;;;;;;13.20;99.90;;;;;;5073293;28;19928;-66
2022/10/18 09:29:53;;;;;;;;;;;13.30;99.90;;;;;;5088392;28;19927;-66
2022/10/18 09:32:38;;;;;;;;;;;13.30;99.90;;;;;;5092784;28;19920;-66
2022/10/18 09:35:12;;;;;;;;;;;13.40;99.90;;;;;;5065273;28;19924;-66
2022/10/18 09:37:38;;;;;;;;;;;13.40;99.90;;;;;;5071650;28;20456;-67
2022/10/18 09:40:19;;;;;;;;;;;13.40;99.90;;;;;;5083246;28;20045;-66
2022/10/18 09:42:50;;;;;;;;;;;13.40;99.90;;;;;;5054759;28;19932;-66
2022/10/18 09:45:29;;;;;;;;;;;13.50;99.90;;;;;;5070664;28;19942;-66
2022/10/18 09:47:55;;;;;;;;;;;13.50;99.90;;;;;;5085419;28;19928;-66
2022/10/18 09:50:40;;;;;;;;;;;13.60;99.90;;;;;;5073070;28;20277;-68
2022/10/18 09:53:10;;;;;;;;;;;13.70;99.90;;;;;;5032706;28;19944;-68
2022/10/18 09:55:39;;;;;;;;;;;13.70;99.90;;;;;;5073586;28;19924;-68
2022/10/18 09:58:06;;;;;;;;;;;13.80;99.90;;;;;;5079999;28;19924;-68
2022/10/18 10:00:40;;;;;;;;;;;13.90;99.90;;;;;;5070995;28;19928;-67
2022/10/18 10:03:13;;;;;;;;;;;14.00;99.90;;;;;;5064134;28;19945;-68
2022/10/18 10:05:39;;;;;;;;;;;14.10;99.90;;;;;;5061986;28;20011;-68
2022/10/18 10:08:04;;;;;;;;;;;14.20;99.90;;;;;;5062524;28;20015;-68
2022/10/18 10:10:30;;;;;;;;;;;14.30;99.90;;;;;;5081025;28;19974;-68
2022/10/18 10:13:13;;;;;;;;;;;14.30;99.90;;;;;;5065185;28;19927;-67
2022/10/18 10:15:40;;;;;;;;;;;14.50;99.90;;;;;;5065916;28;20405;-68
2022/10/18 10:18:16;;;;;;;;;;;14.50;99.90;;;;;;5073199;28;19920;-68
2022/10/18 10:20:52;;;;;;;;;;;14.70;99.90;;;;;;5065945;28;19959;-68
2022/10/18 10:23:23;;;;;;;;;;;14.70;99.90;;;;;;5069907;28;19923;-68
2022/10/18 10:25:59;;;;;;;;;;;14.80;99.90;;;;;;5083289;28;19924;-68
2022/10/18 10:28:28;;;;;;;;;;;14.90;99.90;;;;;;5064357;28;20015;-68
2022/10/18 10:31:14;;;;;;;;;;;14.90;99.90;;;;;;5061067;28;19927;-69
2022/10/18 10:33:39;;;;;;;;;;;14.90;99.90;;;;;;5079771;28;19926;-68
2022/10/18 10:36:14;;;;;;;;;;;14.90;99.90;;;;;;5084235;28;19920;-68
2022/10/18 10:38:39;;;;;;;;;;;14.90;99.90;;;;;;5072328;28;20001;-68
2022/10/18 10:41:16;;;;;;;;;;;15.00;99.90;;;;;;5074546;28;20384;-68
2022/10/18 10:43:44;;;;;;;;;;;15.00;99.90;;;;;;5069271;28;19931;-68
2022/10/18 10:46:17;;;;;;;;;;;15.00;99.90;;;;;;5069756;28;19924;-68
2022/10/18 10:48:46;;;;;;;;;;;15.00;99.90;;;;;;5061137;28;19928;-68
2022/10/18 10:51:12;;;;;;;;;;;15.00;99.90;;;;;;5069960;28;19924;-68
2022/10/18 10:53:41;;;;;;;;;;;15.10;99.90;;;;;;5074701;28;19920;-67
2022/10/18 10:56:14;;;;;;;;;;;15.10;99.90;;;;;;5065041;28;19928;-68
2022/10/18 10:58:40;;;;;;;;;;;15.10;99.90;;;;;;5062437;28;20392;-68
2022/10/18 11:01:25;;;;;;;;;;;15.20;99.90;;;;;;5069448;28;19953;-68
2022/10/18 11:03:53;;;;;;;;;;;15.30;99.90;;;;;;5062943;28;20016;-68
2022/10/18 11:06:35;;;;;;;;;;;15.30;99.90;;;;;;5064782;28;21163;-68
2022/10/18 11:09:03;;;;;;;;;;;15.20;99.90;;;;;;5062685;28;19920;-69
2022/10/18 11:11:38;;;;;;;;;;;15.20;99.90;;;;;;5060945;28;19928;-68
2022/10/18 11:14:23;;;;;;;;;;;15.30;99.90;;;;;;5061251;28;19967;-69
2022/10/18 11:16:58;;;;;;;;;;;15.30;99.90;;;;;;5071934;28;19920;-68
2022/10/18 11:19:42;;;;;;;;;;;15.30;99.90;;;;;;5068113;28;19930;-69
2022/10/18 11:22:11;;;;;;;;;;;15.30;99.90;;;;;;5047755;28;19920;-69
2022/10/18 11:24:37;;;;;;;;;;;15.20;99.90;;;;;;5070502;28;19969;-68
2022/10/18 11:27:07;;;;;;;;;;;15.10;99.90;;;;;;5073637;28;19932;-69
2022/10/18 11:29:41;;;;;;;;;;;15.00;99.90;;;;;;5058383;28;20450;-68
2022/10/18 11:32:12;;;;;;;;;;;15.00;99.90;;;;;;5068951;28;19927;-68
2022/10/18 11:34:38;;;;;;;;;;;15.10;99.90;;;;;;5066941;28;19920;-69
2022/10/18 11:37:13;;;;;;;;;;;15.20;99.90;;;;;;5077221;28;20373;-69
2022/10/18 11:39:57;;;;;;;;;;;15.30;99.90;;;;;;5048855;28;21383;-69
2022/10/18 11:42:37;;;;;;;;;;;15.50;99.90;;;;;;5050220;28;19956;-68
2022/10/18 11:45:09;;;;;;;;;;;15.60;99.90;;;;;;5044229;28;19928;-69
2022/10/18 11:47:39;;;;;;;;;;;15.80;99.90;;;;;;5046901;28;19925;-69
2022/10/18 11:50:25;;;;;;;;;;;16.00;99.90;;;;;;5049186;28;19925;-69
2022/10/18 11:53:07;;;;;;;;;;;16.10;99.90;;;;;;5046244;28;19921;-68
2022/10/18 11:55:35;;;;;;;;;;;16.30;99.90;;;;;;5042312;28;19979;-69
2022/10/18 11:58:09;;;;;;;;;;;16.30;99.90;;;;;;5048047;28;19925;-68
2022/10/18 12:00:47;;;;;;;;;;;16.30;99.90;;;;;;5058453;28;19921;-69
2022/10/18 12:03:32;;;;;;;;;;;16.10;99.90;;;;;;5047410;28;19921;-69
2022/10/18 12:06:00;;;;;;;;;;;16.10;99.90;;;;;;5039665;28;19925;-68
2022/10/18 12:08:35;;;;;;;;;;;16.00;99.90;;;;;;5039598;28;19925;-69
2022/10/18 12:11:07;;;;;;;;;;;16.00;99.90;;;;;;5038177;28;19928;-66
2022/10/18 12:13:43;;;;;;;;;;;15.90;99.90;;;;;;5047839;28;19937;-67
2022/10/18 12:16:09;;;;;;;;;;;15.70;99.90;;;;;;5050047;28;20371;-66
2022/10/18 12:18:40;;;;;;;;;;;15.50;99.90;;;;;;5051381;28;19920;-67
2022/10/18 12:21:06;;;;;;;;;;;15.40;99.90;;;;;;5046408;28;19921;-68
2022/10/18 12:23:41;;;;;;;;;;;15.40;99.90;;;;;;5045029;28;19920;-67
2022/10/18 12:26:09;;;;;;;;;;;15.20;99.90;;;;;;5045139;28;19924;-66
2022/10/18 12:28:34;;;;;;;;;;;15.10;99.90;;;;;;5047527;28;19921;-66
2022/10/18 12:31:00;;;;;;;;;;;15.10;99.90;;;;;;5049512;28;19932;-67
2022/10/18 12:33:27;;;;;;;;;;;15.20;99.90;;;;;;5050200;28;20400;-66
2022/10/18 12:35:53;;;;;;;;;;;15.40;99.90;;;;;;5049691;28;20266;-66
2022/10/18 12:38:22;;;;;;;;;;;15.70;99.90;;;;;;5079573;28;19928;-67
2022/10/18 12:40:48;;;;;;;;;;;16.00;99.90;;;;;;5064423;28;19928;-67
2022/10/18 12:43:24;;;;;;;;;;;16.20;99.90;;;;;;5066113;28;19920;-67
2022/10/18 12:45:51;;;;;;;;;;;16.30;99.90;;;;;;5063057;28;19932;-66
2022/10/18 12:48:28;;;;;;;;;;;16.50;99.90;;;;;;5065028;28;19924;-67
2022/10/18 12:50:57;;;;;;;;;;;16.50;99.90;;;;;;5059098;28;20027;-67
2022/10/18 12:53:25;;;;;;;;;;;16.60;99.90;;;;;;5049729;28;19959;-67
2022/10/18 12:55:51;;;;;;;;;;;16.60;99.90;;;;;;5078569;28;20315;-67
2022/10/18 12:58:21;;;;;;;;;;;16.50;99.90;;;;;;5080315;28;19924;-66
2022/10/18 13:00:47;;;;;;;;;;;16.60;99.90;;;;;;5083701;28;19933;-67
2022/10/18 13:03:15;;;;;;;;;;;16.60;99.90;;;;;;5085435;28;19928;-67
2022/10/18 13:05:51;;;;;;;;;;;16.80;99.90;;;;;;5055715;28;19920;-66
2022/10/18 13:08:26;;;;;;;;;;;16.90;99.90;;;;;;5069341;28;19946;-67
2022/10/18 13:11:07;;;;;;;;;;;17.00;99.90;;;;;;5057615;28;20019;-67
2022/10/18 13:13:32;;;;;;;;;;;17.00;99.90;;;;;;5080345;28;19935;-67
2022/10/18 13:16:01;;;;;;;;;;;16.90;99.90;;;;;;5069163;28;19920;-67
2022/10/18 13:18:33;;;;;;;;;;;16.90;99.90;;;;;;5065199;28;19924;-66
2022/10/18 13:21:09;;;;;;;;;;;16.80;99.90;;;;;;5081308;28;20080;-66
2022/10/18 13:23:53;;;;;;;;;;;16.80;99.90;;;;;;5072720;28;20285;-67
2022/10/18 13:26:19;;;;;;;;;;;16.60;99.90;;;;;;5066752;28;20323;-66
2022/10/18 13:28:54;;;;;;;;;;;16.40;99.90;;;;;;5088820;28;19920;-66
2022/10/18 13:31:35;;;;;;;;;;;16.30;99.90;;;;;;5084790;28;19920;-66
2022/10/18 13:34:21;;;;;;;;;;;16.30;99.90;;;;;;5080282;28;20035;-66
2022/10/18 13:36:57;;;;;;;;;;;16.20;99.90;;;;;;5069273;28;19932;-66
2022/10/18 13:39:22;;;;;;;;;;;16.20;99.90;;;;;;5082272;28;20408;-67
2022/10/18 13:41:49;;;;;;;;;;;16.00;99.90;;;;;;5083425;28;19920;-66
2022/10/18 13:44:36;;;;;;;;;;;16.10;99.90;;;;;;5066100;28;19962;-67
2022/10/18 13:47:01;;;;;;;;;;;16.20;99.90;;;;;;5065616;28;19939;-67
2022/10/18 13:49:42;;;;;;;;;;;16.20;99.90;;;;;;5058658;28;20300;-66
2022/10/18 13:52:26;;;;;;;;;;;16.20;99.90;;;;;;5064907;28;19986;-67
2022/10/18 13:55:00;;;;;;;;;;;16.20;99.90;;;;;;5079271;28;20378;-67
2022/10/18 13:57:32;;;;;;;;;;;16.20;99.90;;;;;;5060626;28;20273;-66
2022/10/18 14:00:03;;;;;;;;;;;16.20;99.90;;;;;;5056207;28;20328;-67
2022/10/18 14:02:47;;;;;;;;;;;16.10;99.90;;;;;;5086803;28;19952;-65
2022/10/18 14:05:13;;;;;;;;;;;16.20;99.90;;;;;;5062902;28;19950;-66
2022/10/18 14:07:40;;;;;;;;;;;16.10;99.90;;;;;;5067631;28;20380;-68
2022/10/18 14:10:08;;;;;;;;;;;16.20;99.90;;;;;;5089308;28;19931;-66
2022/10/18 14:12:38;;;;;;;;;;;16.10;99.90;;;;;;5061535;28;19924;-67
2022/10/18 14:15:06;;;;;;;;;;;16.10;99.90;;;;;;5063226;28;19920;-67
2022/10/18 14:17:31;;;;;;;;;;;16.10;99.90;;;;;;5088210;28;19920;-68
2022/10/18 14:20:00;;;;;;;;;;;16.00;99.90;;;;;;5067723;28;20554;-67
2022/10/18 14:22:29;;;;;;;;;;;16.00;99.90;;;;;;5070771;28;19920;-67
2022/10/18 14:24:55;;;;;;;;;;;16.00;99.90;;;;;;5072081;28;19949;-68